createdAt,value
2018-05-12T00:04:42.425Z,101317.56
2018-05-12T00:09:43.752Z,101312.50
2018-05-12T00:14:45.082Z,101308.14
2018-05-12T00:19:47.154Z,101301.25
2018-05-12T00:24:48.479Z,101294.64
2018-05-12T00:29:50.573Z,101291.23
2018-05-12T00:34:51.922Z,101289.08
2018-05-12T00:39:53.249Z,101295.48
2018-05-12T00:44:55.468Z,101298.81
2018-05-12T00:49:57.513Z,101289.93
2018-05-12T00:54:58.821Z,101285.28
2018-05-12T01:00:00.140Z,101280.28
2018-05-12T01:05:01.622Z,101281.69
2018-05-12T01:10:03.222Z,101276.42
2018-05-12T01:15:04.944Z,101277.29
2018-05-12T01:20:06.543Z,101267.11
2018-05-12T01:25:08.101Z,101268.63
2018-05-12T01:30:09.455Z,101270.79
2018-05-12T01:35:10.797Z,101264.13
2018-05-12T01:40:12.149Z,101274.20
2018-05-12T01:45:13.464Z,101274.16
2018-05-12T01:50:14.789Z,101267.63
2018-05-12T01:55:16.861Z,101274.77
2018-05-12T02:00:18.210Z,101264.95
2018-05-12T02:05:19.530Z,101267.91
2018-05-12T02:10:20.870Z,101266.55
2018-05-12T02:15:22.955Z,101264.28
2018-05-12T02:20:25.035Z,101269.97
2018-05-12T02:25:26.349Z,101266.75
2018-05-12T02:30:28.441Z,101272.45
2018-05-12T02:35:29.752Z,101272.65
2018-05-12T02:40:31.814Z,101275.73
2018-05-12T02:45:33.107Z,101270.28
2018-05-12T02:50:34.425Z,101277.08
2018-05-12T02:55:35.730Z,101274.66
2018-05-12T03:00:37.816Z,101273.17
2018-05-12T03:05:46.016Z,101280.25
2018-05-12T03:10:47.347Z,101270.62
2018-05-12T03:15:49.147Z,101273.79
2018-05-12T03:20:50.457Z,101271.52
2018-05-12T03:25:52.551Z,101263.39
2018-05-12T03:30:53.861Z,101259.95
2018-05-12T03:35:55.916Z,101255.30
2018-05-12T03:40:57.250Z,101256.42
2018-05-12T03:45:58.565Z,101256.11
2018-05-12T03:50:59.879Z,101256.75
2018-05-12T03:56:01.182Z,101256.49
2018-05-12T04:01:02.525Z,101257.02
2018-05-12T04:06:23.104Z,101253.94
2018-05-12T04:11:43.008Z,101259.86
2018-05-12T04:16:44.338Z,101257.47
2018-05-12T04:21:46.466Z,101263.67
2018-05-12T04:26:47.802Z,101265.05
2018-05-12T04:31:49.123Z,101264.43
2018-05-12T04:36:50.443Z,101260.67
2018-05-12T04:41:52.526Z,101267.81
2018-05-12T04:46:53.867Z,101262.22
2018-05-12T04:51:55.206Z,101262.20
2018-05-12T04:56:56.533Z,101260.00
2018-05-12T05:01:58.648Z,101269.12
2018-05-12T05:06:59.990Z,101268.95
2018-05-12T05:12:01.314Z,101270.90
2018-05-12T05:17:03.369Z,101283.69
2018-05-12T05:22:04.705Z,101273.16
2018-05-12T05:27:06.754Z,101269.15
2018-05-12T05:32:08.113Z,101275.88
2018-05-12T05:37:09.444Z,101276.62
2018-05-12T05:42:10.770Z,101283.03
2018-05-12T05:47:12.852Z,101282.78
2018-05-12T05:52:14.174Z,101280.06
2018-05-12T05:57:16.234Z,101288.58
2018-05-12T06:02:17.555Z,101294.02
2018-05-12T06:07:18.886Z,101294.86
2018-05-12T06:12:20.219Z,101285.23
2018-05-12T06:17:21.542Z,101282.48
2018-05-12T06:22:23.610Z,101278.97
2018-05-12T06:27:24.947Z,101282.94
2018-05-12T06:32:26.292Z,101285.52
2018-05-12T06:37:27.642Z,101281.48
2018-05-12T06:42:29.222Z,101285.92
2018-05-12T06:47:31.311Z,101283.63
2018-05-12T06:52:33.419Z,101279.30
2018-05-12T06:57:35.493Z,101284.59
2018-05-12T07:02:36.817Z,101279.59
2018-05-12T07:07:38.879Z,101278.07
2018-05-12T07:12:40.206Z,101272.83
2018-05-12T07:17:41.604Z,101273.77
2018-05-12T07:22:43.650Z,101272.76
2018-05-12T07:27:44.983Z,101275.38
2018-05-12T07:32:46.331Z,101270.47
2018-05-12T07:37:47.669Z,101276.05
2018-05-12T07:42:49.026Z,101280.86
2018-05-12T07:47:50.463Z,101280.07
2018-05-12T07:52:51.825Z,101281.05
2018-05-12T07:57:53.953Z,101278.31
2018-05-12T08:02:55.289Z,101272.52
2018-05-12T08:07:57.856Z,101266.58
2018-05-12T08:13:00.285Z,101268.84
2018-05-12T08:18:03.133Z,101266.48
2018-05-12T08:23:04.481Z,101264.02
2018-05-12T08:28:06.167Z,101260.13
2018-05-12T08:33:07.958Z,101257.84
2018-05-12T08:38:09.317Z,101257.44
2018-05-12T08:43:10.637Z,101257.31
2018-05-12T08:48:11.976Z,101251.40
2018-05-12T08:53:14.047Z,101250.50
2018-05-12T08:58:15.345Z,101251.05
2018-05-12T09:03:17.423Z,101243.38
2018-05-12T09:08:18.741Z,101243.47
2018-05-12T09:13:20.051Z,101242.16
2018-05-12T09:18:22.102Z,101241.17
2018-05-12T09:23:23.426Z,101242.38
2018-05-12T09:28:25.926Z,101244.88
2018-05-12T09:33:27.271Z,101237.45
2018-05-12T09:38:28.621Z,101230.27
2018-05-12T09:43:30.031Z,101231.66
2018-05-12T09:48:32.086Z,101232.86
2018-05-12T09:53:33.416Z,101232.03
2018-05-12T09:58:35.502Z,101226.36
2018-05-12T10:03:36.813Z,101219.73
2018-05-12T10:08:38.877Z,101221.64
2018-05-12T10:13:40.212Z,101223.92
2018-05-12T10:18:42.280Z,101223.11
2018-05-12T10:23:43.590Z,101208.23
2018-05-12T10:28:44.950Z,101207.41
2018-05-12T10:33:46.274Z,101215.65
2018-05-12T10:38:47.624Z,101201.71
2018-05-12T10:43:48.935Z,101197.58
2018-05-12T10:48:50.247Z,101186.88
2018-05-12T10:53:52.301Z,101185.58
2018-05-12T10:58:53.636Z,101184.89
2018-05-12T11:03:55.741Z,101168.45
2018-05-12T11:08:57.801Z,101173.80
2018-05-12T11:13:59.130Z,101169.88
2018-05-12T11:19:00.446Z,101162.76
2018-05-12T11:24:02.568Z,101152.91
2018-05-12T11:29:03.892Z,101147.97
2018-05-12T11:34:05.271Z,101138.84
2018-05-12T11:39:06.626Z,101138.80
2018-05-12T11:44:08.732Z,101140.50
2018-05-12T11:49:10.821Z,101125.87
2018-05-12T11:54:12.931Z,101123.86
2018-05-12T11:59:14.254Z,101123.66
2018-05-12T12:04:15.588Z,101113.88
2018-05-12T12:09:16.910Z,101104.30
2018-05-12T12:14:18.980Z,101099.23
2018-05-12T12:19:20.322Z,101099.07
2018-05-12T12:24:21.648Z,101095.91
2018-05-12T12:29:22.969Z,101102.95
2018-05-12T12:34:24.303Z,101087.02
2018-05-12T12:39:25.791Z,101089.50
2018-05-12T12:44:27.153Z,101085.20
2018-05-12T12:49:29.228Z,101076.78
2018-05-12T12:54:30.636Z,101070.75
2018-05-12T12:59:32.787Z,101062.72
2018-05-12T13:04:34.114Z,101057.70
2018-05-12T13:09:35.421Z,101058.65
2018-05-12T13:14:37.035Z,101058.84
2018-05-12T13:19:39.104Z,101045.62
2018-05-12T13:24:40.471Z,101042.66
2018-05-12T13:29:41.801Z,101039.27
2018-05-12T13:34:43.133Z,101029.22
2018-05-12T13:39:44.531Z,101028.38
2018-05-12T13:44:45.911Z,101023.47
2018-05-12T13:49:47.290Z,101022.35
2018-05-12T13:54:48.590Z,101017.78
2018-05-12T13:59:49.924Z,101022.75
2018-05-12T14:04:51.259Z,101011.91
2018-05-12T14:09:52.676Z,101010.45
2018-05-12T14:14:54.019Z,101012.55
2018-05-12T14:19:56.139Z,101019.78
2018-05-12T14:24:57.509Z,101011.31
2018-05-12T14:29:58.875Z,101010.92
2018-05-12T14:35:00.243Z,101005.47
2018-05-12T14:40:01.705Z,101008.47
2018-05-12T14:45:03.862Z,101002.23
2018-05-12T14:50:05.262Z,101003.30
2018-05-12T14:55:06.597Z,100995.75
2018-05-12T15:00:08.670Z,100994.80
2018-05-12T15:05:10.454Z,100996.70
2018-05-12T15:10:11.787Z,100985.92
2018-05-12T15:15:13.155Z,100964.13
2018-05-12T15:20:14.507Z,100983.95
2018-05-12T15:25:15.851Z,100970.48
2018-05-12T15:30:17.211Z,100965.05
2018-05-12T15:35:18.590Z,100952.67
2018-05-12T15:40:19.953Z,100947.83
2018-05-12T15:45:21.332Z,100949.14
2018-05-12T15:50:23.438Z,100945.73
2018-05-12T15:55:25.537Z,100941.61
2018-05-12T16:00:27.654Z,100945.22
2018-05-12T16:05:29.730Z,100941.38
2018-05-12T16:10:31.136Z,100939.34
2018-05-12T16:15:33.250Z,100936.69
2018-05-12T16:20:35.358Z,100935.59
2018-05-12T16:25:37.820Z,100941.28
2018-05-12T16:30:39.120Z,100929.06
2018-05-12T16:35:40.525Z,100935.70
2018-05-12T16:40:41.902Z,100923.98
2018-05-12T16:45:43.305Z,100922.25
2018-05-12T16:50:44.741Z,100931.96
2018-05-12T16:55:46.773Z,100928.42
2018-05-12T17:00:48.244Z,100931.63
2018-05-12T17:05:49.630Z,100927.20
2018-05-12T17:10:50.958Z,100916.50
2018-05-12T17:15:52.971Z,100915.54
2018-05-12T17:20:55.148Z,100911.63
2018-05-12T17:25:56.599Z,100899.47
2018-05-12T17:30:58.029Z,100912.11
2018-05-12T17:36:00.153Z,100891.90
2018-05-12T17:41:02.576Z,100900.47
2018-05-12T17:46:04.213Z,100899.43
2018-05-12T17:51:06.310Z,100894.36
2018-05-12T17:56:07.659Z,100893.63
2018-05-12T18:01:09.014Z,100889.54
2018-05-12T18:06:11.145Z,100889.54
2018-05-12T18:11:13.471Z,100884.05
2018-05-12T18:16:14.837Z,100876.57
2018-05-12T18:21:16.979Z,100879.06
2018-05-12T18:26:18.350Z,100878.55
2018-05-12T18:31:19.671Z,100885.92
2018-05-12T18:36:21.011Z,100877.96
2018-05-12T18:41:23.122Z,100879.00
2018-05-12T18:46:24.486Z,100876.09
2018-05-12T18:51:25.876Z,100880.48
2018-05-12T18:56:27.234Z,100885.00
2018-05-12T19:01:28.572Z,100894.04
2018-05-12T19:06:30.626Z,100889.78
2018-05-12T19:11:32.200Z,100890.48
2018-05-12T19:16:33.560Z,100896.00
2018-05-12T19:21:34.975Z,100898.00
2018-05-12T19:26:36.327Z,100905.92
2018-05-12T19:31:37.723Z,100899.10
2018-05-12T19:36:39.081Z,100897.75
2018-05-12T19:41:40.462Z,100889.94
2018-05-12T19:46:41.785Z,100888.73
2018-05-12T19:51:43.170Z,100891.91
2018-05-12T19:56:44.571Z,100892.30
2018-05-12T20:01:46.743Z,100893.83
2018-05-12T20:06:48.084Z,100891.48
2018-05-12T20:11:50.190Z,100890.48
2018-05-12T20:16:52.294Z,100894.70
2018-05-12T20:21:54.419Z,100893.13
2018-05-12T20:26:55.778Z,100879.35
2018-05-12T20:31:57.115Z,100895.67
2018-05-12T20:36:58.662Z,100900.56
2018-05-12T20:42:00.026Z,100894.80
2018-05-12T20:47:01.526Z,100887.28
2018-05-12T20:52:02.890Z,100892.19
2018-05-12T20:57:04.330Z,100893.76
2018-05-12T21:02:05.689Z,100891.58
2018-05-12T21:07:07.142Z,100884.91
2018-05-12T21:12:09.153Z,100883.33
2018-05-12T21:17:10.521Z,100877.42
2018-05-12T21:22:12.631Z,100879.05
2018-05-12T21:27:21.717Z,100874.16
2018-05-12T21:32:23.060Z,100865.82
2018-05-12T21:37:24.402Z,100869.12
2018-05-12T21:42:25.738Z,100864.51
2018-05-12T21:47:27.055Z,100863.53
2018-05-12T21:52:28.342Z,100872.72
2018-05-12T21:57:29.661Z,100869.09
2018-05-12T22:02:30.986Z,100862.39
2018-05-12T22:07:32.300Z,100862.12
2018-05-12T22:12:33.668Z,100853.45
2018-05-12T22:17:34.982Z,100854.05
2018-05-12T22:22:36.327Z,100852.02
2018-05-12T22:27:37.637Z,100845.97
2018-05-12T22:32:38.929Z,100844.75
2018-05-12T22:37:40.302Z,100834.59
2018-05-12T22:42:41.618Z,100827.53
2018-05-12T22:47:42.950Z,100823.77
2018-05-12T22:52:44.353Z,100827.14
2018-05-12T22:57:45.708Z,100822.12
2018-05-12T23:02:47.056Z,100814.09
2018-05-12T23:07:48.373Z,100818.33
2018-05-12T23:12:49.673Z,100812.91
2018-05-12T23:17:50.986Z,100826.06
2018-05-12T23:22:53.043Z,100820.72
2018-05-12T23:27:54.356Z,100816.13
2018-05-12T23:32:55.679Z,100824.47
2018-05-12T23:37:56.974Z,100820.70
2018-05-12T23:42:58.290Z,100815.39
2018-05-12T23:47:59.590Z,100809.01
2018-05-12T23:53:00.903Z,100812.69
2018-05-12T23:58:02.225Z,100805.91
